イルクーツク の空港の天気 - METARとTAF

イルクーツク国際空港 ( UIII / IKT ) - ロシア イルクーツク
飛行場実況気象(Metar)
観測時間05/28 18:00 IRKT (05/28 10:00 UTC)
風向・風速北北西 8m/s
視程10km以上
天気現象
全天の4割程度の雲 雲底高度 1010m
気温12℃
湿度47%
気圧1011hPa
METARUIII 281000Z 34008MPS 9999 SCT033CB 12/01 Q1011 R30/60D NOSIG RMK QFE714/0952
過去の天気等 Google飛行場航空写真 Wunderground天気予報

過去48時間のMETAR

飛行場予報(TAF)
発表時間: 5/28 16:00 IRKT (5/28 08:00 UTC)
予報対象時間: 28日17時 IRKT ~ 29日17時 IRKT
風向・風速北北西 8m/s 瞬間風速 14m/s
視程10km以上
全天の4割程度の積乱雲 雲底高度 1220m
28日17時 IRKT ~ 28日20時 IRKT に一時的に
風向・風速不定 15m/s
TAF UIII 280800Z 2809/2909 34008G14MPS 9999 SCT040CB
TEMPO 2809/2812 VRB15MPS